ADDS METAR Data INFO
IDs: Format: Raw Decoded Include TAF

Data at: 0149 UTC 21 Apr 2018

KMRF 210056Z AUTO 27010KT 10SM SCT080 26/M09 A2990 RMK AO2 SLP076 T02611094
KMRF 202356Z AUTO 14020G28KT 10SM FEW120 26/09 A2985 RMK AO2 PK WND 20030/2303 SLP054 6//// T02610089 10289 20233 56018
KMRF 202256Z AUTO 19017G23KT 10SM FEW110 28/05 A2986 RMK AO2 PK WND 17027/2224 SLP057 T02830050
KMRF 202156Z AUTO 17019G28KT 10SM SCT095 BKN120 28/07 A2988 RMK AO2 PK WND 17031/2132 SLP066 T02780072
KMRF 202056Z AUTO 17017G32KT 10SM CLR 27/10 A2991 RMK AO2 PK WND 17032/2051 SLP074 6//// T02720100 58024
KMRF 201956Z AUTO 17020G32KT 10SM CLR 26/09 A2994 RMK AO2 PK WND 18032/1947 SLP086 T02610094
KMRF 201856Z AUTO 17018G27KT 10SM CLR 24/10 A2997 RMK AO2 SLP098 T02440100
KMRF 201756Z AUTO 17022G31KT 9SM CLR 23/11 A2999 RMK AO2 PK WND 18031/1752 SLP108 6//// T02280111 10228 20100 58021
KMRF 201656Z AUTO 10SM FEW038 22/10 A3004 RMK AO2 SLP124 T02170100
KMRF 201556Z AUTO 15024G29KT 10SM CLR 19/10 A3004 RMK AO2 SLP128 T01940100
KMRF 201456Z AUTO 15020G24KT 10SM CLR 17/09 A3006 RMK AO2 SLP140 6//// T01720089 58006
KMRF 201356Z AUTO 16010KT 10SM CLR 14/07 A3008 RMK AO2 SLP148 T01390067
KMRF 201256Z AUTO 14004KT 10SM CLR 11/05 A3009 RMK AO2 SLP153 T01060050
KMRF 201156Z AUTO 15006KT 10SM CLR 11/05 A3009 RMK AO2 SLP146 6//// 7//// T01110050 10133 20094
KMRF 201056Z AUTO 14005KT 10SM CLR 11/04 A3009 RMK AO2 SLP145 T01060044
KMRF 200956Z AUTO 10SM CLR 10/04 RMK AO2 SLPNO T01000044 $
KMRF 200856Z AUTO 00000KT 10SM CLR 11/06 RMK AO2 SLPNO T01110056 $
KMRF 200756Z AUTO 10SM CLR 11/05 A3010 RMK AO2 SLP148 T01110050
KMRF 200656Z AUTO 13008KT 10SM CLR 13/06 A3013 RMK AO2 SLP156 T01280061 402330072
KMRF 200556Z AUTO 12003KT 10SM CLR 13/06 A3016 RMK AO2 SLP171 6//// T01280056 10206 20128 50002
KMRF 200456Z AUTO 10006KT 10SM CLR 13/07 A3017 RMK AO2 SLP174 T01330067
KMRF 200356Z AUTO 10009KT 10SM CLR 14/07 A3018 RMK AO2 SLP180 T01390072
KMRF 200256Z AUTO 09006KT 10SM CLR 14/06 A3016 RMK AO2 SLP175 6//// T01390056
KMRF 200156Z AUTO 08009KT 10SM CLR 16/06 A3015 RMK AO2 SLP172 T01560056
KMRF 200056Z AUTO 10SM CLR 18/04 RMK AO2 SLPNO T01780044 $
KMRF 192356Z AUTO 10015G22KT 10SM CLR 21/02 A3015 RMK AO2 SLP174 6//// T02060022 10233 20200 55012
KMRF 192256Z AUTO 11016G21KT 10SM CLR 22/02 A3014 RMK AO2 SLP169 T02220022
KMRF 192156Z AUTO 15013G24KT 10SM CLR 22/03 A3017 RMK AO2 PK WND 13027/2129 SLP177 T02220028
KMRF 191956Z AUTO 12013G20KT 10SM CLR 23/04 A3022 RMK AO2 PK WND 10027/1938 SLP188 T02280039
KMRF 191856Z AUTO 10014G18KT 10SM CLR 22/03 RMK AO2 SLPNO T02170033 $
KMRF 191756Z AUTO 09015G21KT 10SM CLR 21/03 RMK AO2 SLPNO 6//// T02060028 10206 20078 $
KMRF 191656Z AUTO 12017G20KT 10SM 19/02 RMK AO2 SLPNO T01890017 $
KMRF 191556Z AUTO 11012G16KT 10SM CLR 17/03 A3031 RMK AO2 SLP224 T01670028
KMRF 191456Z AUTO 11009KT 10SM CLR 14/03 A3030 RMK AO2 SLP224 T01440028 52010
KMRF 191356Z AUTO 00000KT 10SM CLR 13/04 A3029 RMK AO2 SLP222 T01280039